Time;durP1;ratioP1;P1;durP2;ratioP2;P2;SDS_P1;SDS_P2;PMS_P1;PMS_P2;Temp;Humidity;BMP_temperature;BMP_pressure;BME280_temperature;BME280_humidity;BME280_pressure;Samples;Min_cycle;Max_cycle;Signal;HPM_P1;HPM_P2
2023/11/21 00:18:31;749281.00;2.50;1292.81;0.00;0.00;0.62;;;;;14.90;1.00;;;;;;2281796;61;1006;-91
2023/11/21 00:26:36;479734.00;1.60;826.94;0.00;0.00;0.62;;;;;14.70;1.00;;;;;;2281407;61;1266;-91
2023/11/21 00:29:03;769551.00;2.57;1328.07;51984.00;0.17;90.62;;;;;14.70;1.00;;;;;;2279395;61;1038;-91
2023/11/21 01:40:13;982767.00;3.28;1701.97;82810.00;0.28;143.89;;;;;14.60;1.00;;;;;;2516162;55;3542;31
2023/11/21 02:58:13;860662.00;2.87;1487.13;0.00;0.00;0.62;;;;;13.60;1.00;;;;;;2278702;61;964;-92
2023/11/21 03:13:22;816858.00;2.72;1410.54;0.00;0.00;0.62;;;;;12.80;1.00;;;;;;2282207;61;1946;-91
2023/11/21 03:18:28;450173.00;1.50;776.08;0.00;0.00;0.62;;;;;13.40;1.00;;;;;;2278157;61;1306;-93
2023/11/21 03:23:25;433493.00;1.44;747.39;0.00;0.00;0.62;;;;;13.70;1.00;;;;;;2278467;61;1303;-92
2023/11/21 03:25:52;264237.00;0.88;456.43;0.00;0.00;0.62;;;;;13.80;1.00;;;;;;2276486;61;1797;-91
2023/11/21 03:28:19;344778.00;1.15;594.89;27081.00;0.09;47.53;;;;;13.90;1.00;;;;;;2276645;61;396;-92
2023/11/21 03:30:56;196307.00;0.65;339.57;0.00;0.00;0.62;;;;;13.90;1.00;;;;;;2267996;61;846;-92
2023/11/21 03:58:34;1329866.00;4.43;2326.87;61984.00;0.21;107.91;;;;;14.10;1.00;;;;;;2278012;61;1334;-91
2023/11/21 04:01:01;786320.00;2.62;1357.28;102375.00;0.34;177.67;;;;;14.20;1.00;;;;;;2276025;61;1038;-92
2023/11/21 04:03:28;781794.00;2.61;1349.39;84064.00;0.28;146.06;;;;;14.10;1.00;;;;;;2276567;61;1550;-93
2023/11/21 04:05:55;686049.00;2.29;1183.05;82119.00;0.27;142.70;;;;;14.10;1.00;;;;;;2276660;61;1694;-92
2023/11/21 04:08:22;731649.00;2.44;1262.17;82922.00;0.28;144.08;;;;;14.20;1.00;;;;;;2276160;61;1459;-89
2023/11/21 04:10:49;642843.00;2.14;1108.26;81166.00;0.27;141.05;;;;;14.20;1.00;;;;;;2276734;61;1661;-90
2023/11/21 06:26:41;1250144.00;4.17;2181.15;18869.00;0.06;33.31;;;;;14.70;1.00;;;;;;2282454;61;1076;-92
2023/11/21 06:31:41;372734.00;1.24;642.94;0.00;0.00;0.62;;;;;14.70;1.00;;;;;;2278726;61;1879;-92
2023/11/21 06:34:09;238355.00;0.79;411.92;58331.00;0.19;101.59;;;;;14.60;1.00;;;;;;2277055;61;1292;-91
2023/11/21 06:36:36;50537.00;0.17;88.11;0.00;0.00;0.62;;;;;14.70;1.00;;;;;;2276723;61;1751;-90
2023/11/21 06:46:42;411544.00;1.37;709.65;0.00;0.00;0.62;;;;;15.00;1.00;;;;;;2279050;61;1191;-92
2023/11/21 06:56:39;489522.00;1.63;843.79;0.00;0.00;0.62;;;;;15.10;1.00;;;;;;2278612;61;950;-92
2023/11/21 07:32:35;936122.00;3.12;1619.65;87264.00;0.29;151.58;;;;;14.70;1.00;;;;;;2511700;55;3630;31
2023/11/21 07:50:18;1057254.00;3.52;1834.14;38109.00;0.13;66.62;;;;;15.00;1.00;;;;;;2511196;55;3569;31
2023/11/21 08:05:12;610604.00;2.04;1052.53;0.00;0.00;0.62;;;;;14.90;1.00;;;;;;2516888;55;3539;31
2023/11/21 08:53:07;409899.00;1.37;706.82;0.00;0.00;0.62;;;;;14.30;1.00;;;;;;2279300;61;1936;-92
2023/11/21 08:55:37;87119.00;0.29;151.33;0.00;0.00;0.62;;;;;14.50;1.00;;;;;;2276793;61;1522;-87
2023/11/21 11:35:11;886200.00;2.95;1531.90;0.00;0.00;0.62;;;;;15.10;1.00;;;;;;2278805;61;1332;-90
2023/11/21 12:28:02;540792.00;1.80;932.09;0.00;0.00;0.62;;;;;14.50;1.00;;;;;;2278167;61;1069;-92
2023/11/21 12:30:31;19950.00;0.07;35.18;0.00;0.00;0.62;;;;;14.20;1.00;;;;;;2268093;61;818;-94
2023/11/21 12:33:00;51280.00;0.17;89.40;0.00;0.00;0.62;;;;;14.30;1.00;;;;;;2264085;61;1982;-93
2023/11/21 12:35:30;83233.00;0.28;144.62;0.00;0.00;0.62;;;;;14.20;1.00;;;;;;2263882;61;1543;-91
2023/11/21 12:37:58;224675.00;0.75;388.39;0.00;0.00;0.62;;;;;14.10;1.00;;;;;;2256092;61;933;-93
2023/11/21 12:40:26;76580.00;0.26;133.13;0.00;0.00;0.62;;;;;14.10;1.00;;;;;;2255545;61;1571;-91
2023/11/21 12:42:54;195724.00;0.65;338.56;0.00;0.00;0.62;;;;;14.20;1.00;;;;;;2256002;61;974;-88
2023/11/21 13:08:39;483282.00;1.61;833.05;0.00;0.00;0.62;;;;;15.50;1.00;;;;;;2274705;61;1322;-92
2023/11/21 14:21:42;402559.00;1.34;694.20;0.00;0.00;0.62;;;;;15.70;1.00;;;;;;2274832;61;968;-89
2023/11/21 15:16:51;676274.00;2.25;1166.12;0.00;0.00;0.62;;;;;14.70;1.00;;;;;;2274625;61;992;-91
2023/11/21 15:36:54;429287.00;1.43;740.16;0.00;0.00;0.62;;;;;12.00;3.30;;;;;;2274340;61;963;-89
2023/11/21 15:46:53;189667.00;0.63;328.14;0.00;0.00;0.62;;;;;13.10;1.10;;;;;;2274777;61;1311;-92
2023/11/21 16:47:05;500633.00;1.67;862.91;89922.00;0.30;156.17;;;;;11.80;5.10;;;;;;2284540;39;3538;-88
2023/11/21 16:52:01;441476.00;1.47;761.12;88231.00;0.29;153.25;;;;;11.80;5.20;;;;;;2278478;61;1352;-87
2023/11/21 16:54:28;461321.00;1.54;795.26;84163.00;0.28;146.23;;;;;11.90;4.40;;;;;;2276515;61;2062;-86
2023/11/21 16:56:55;331438.00;1.10;571.96;91005.00;0.30;158.04;;;;;11.60;4.90;;;;;;2276707;61;935;-87
2023/11/21 16:59:23;283116.00;0.94;488.89;86481.00;0.29;150.23;;;;;11.60;5.80;;;;;;2276647;61;1022;-87
2023/11/21 17:01:50;364519.00;1.22;628.82;89902.00;0.30;156.14;;;;;11.50;5.60;;;;;;2276711;61;1436;-88
2023/11/21 17:04:18;228333.00;0.76;394.68;90699.00;0.30;157.51;;;;;11.50;5.40;;;;;;2276654;61;1390;-85
2023/11/21 17:06:47;237515.00;0.79;410.48;87710.00;0.29;152.35;;;;;11.40;5.60;;;;;;2276823;61;987;-87
2023/11/21 17:09:17;196540.00;0.66;339.97;84818.00;0.28;147.36;;;;;11.10;7.60;;;;;;2276763;61;1091;-88
2023/11/21 17:11:47;347500.00;1.16;599.56;83838.00;0.28;145.67;;;;;11.40;8.00;;;;;;2276715;61;1007;-86
2023/11/21 17:14:14;202906.00;0.68;350.93;75203.00;0.25;130.75;;;;;11.70;6.10;;;;;;2276612;61;2099;-86
2023/11/21 17:16:43;374094.00;1.25;645.27;85582.00;0.29;148.68;;;;;11.80;5.00;;;;;;2276824;61;894;-85
2023/11/21 17:19:10;275813.00;0.92;476.34;81642.00;0.27;141.87;;;;;11.70;5.00;;;;;;2276732;61;1142;-86
2023/11/21 17:21:39;115110.00;0.38;199.65;0.00;0.00;0.62;;;;;11.30;6.00;;;;;;2276749;61;960;-89
2023/11/21 17:24:08;158407.00;0.53;274.29;19177.00;0.06;33.84;;;;;11.10;8.20;;;;;;2276644;61;1415;-86
2023/11/21 17:26:35;79696.00;0.27;138.51;0.00;0.00;0.62;;;;;11.40;7.50;;;;;;2276724;61;1694;-85
2023/11/21 17:29:02;0.00;0.00;0.62;0.00;0.00;0.62;;;;;11.80;5.60;;;;;;2276621;61;1412;-87
2023/11/21 17:31:29;89148.00;0.30;154.84;0.00;0.00;0.62;;;;;11.70;3.70;;;;;;2276634;61;947;-87
2023/11/21 17:33:56;46005.00;0.15;80.28;0.00;0.00;0.62;;;;;11.40;6.10;;;;;;2276531;61;2000;-88
2023/11/21 17:36:24;259913.00;0.87;449.00;0.00;0.00;0.62;;;;;11.30;6.10;;;;;;2276584;61;1575;-86
2023/11/21 17:38:53;209945.00;0.70;363.04;70937.00;0.24;123.38;;;;;11.50;5.70;;;;;;2276647;61;988;-88
2023/11/21 17:41:21;253774.00;0.85;438.44;0.00;0.00;0.62;;;;;11.80;4.80;;;;;;2276615;61;1027;-86
2023/11/21 17:43:48;151949.00;0.51;263.17;0.00;0.00;0.62;;;;;11.90;3.90;;;;;;2276512;61;1526;-87
2023/11/21 17:46:20;270502.00;0.90;467.21;71745.00;0.24;124.78;;;;;12.00;3.20;;;;;;2276449;61;1361;-86
2023/11/21 17:48:48;174208.00;0.58;301.51;0.00;0.00;0.62;;;;;12.20;2.50;;;;;;2276444;61;969;-86
2023/11/21 17:51:15;233379.00;0.78;403.36;0.00;0.00;0.62;;;;;12.40;1.40;;;;;;2276431;61;1054;-87
2023/11/21 17:53:44;95173.00;0.32;165.24;0.00;0.00;0.62;;;;;12.50;1.00;;;;;;2276339;61;1915;-89
2023/11/21 17:56:16;205146.00;0.68;354.78;0.00;0.00;0.62;;;;;12.60;1.40;;;;;;2276360;61;1502;-89
2023/11/21 17:58:43;299829.00;1.00;517.63;57089.00;0.19;99.44;;;;;12.80;1.00;;;;;;2276501;61;1076;-87
2023/11/21 18:01:10;28269.00;0.09;49.59;0.00;0.00;0.62;;;;;12.80;1.00;;;;;;2276486;61;921;-86
2023/11/21 18:03:37;14247.00;0.05;25.31;0.00;0.00;0.62;;;;;12.40;1.00;;;;;;2276509;61;1053;-87
2023/11/21 18:06:04;37862.00;0.13;66.19;0.00;0.00;0.62;;;;;12.10;1.00;;;;;;2276475;61;1366;-86
2023/11/21 18:08:31;198017.00;0.66;342.51;0.00;0.00;0.62;;;;;12.20;1.30;;;;;;2276439;61;1010;-86
2023/11/21 18:10:59;190067.00;0.63;328.82;0.00;0.00;0.62;;;;;12.10;1.70;;;;;;2276414;61;1634;-86
2023/11/21 18:13:27;108994.00;0.36;189.09;0.00;0.00;0.62;;;;;11.90;2.20;;;;;;2276303;61;2002;-85
2023/11/21 18:15:54;178552.00;0.60;309.00;0.00;0.00;0.62;;;;;11.80;2.40;;;;;;2276445;61;1691;-86
2023/11/21 18:18:21;77777.00;0.26;135.20;0.00;0.00;0.62;;;;;11.90;3.40;;;;;;2276530;61;1030;-86
2023/11/21 18:20:48;45732.00;0.15;79.80;0.00;0.00;0.62;;;;;11.80;2.20;;;;;;2276492;61;1032;-89
2023/11/21 18:23:15;209140.00;0.70;361.66;0.00;0.00;0.62;;;;;11.80;3.70;;;;;;2276467;61;1131;-86
2023/11/21 18:25:43;62681.00;0.21;109.11;0.00;0.00;0.62;;;;;12.00;3.60;;;;;;2276352;61;1605;-87
2023/11/21 18:28:10;34396.00;0.11;60.19;0.00;0.00;0.62;;;;;12.20;2.40;;;;;;2276474;61;1564;-86
2023/11/21 18:30:39;289870.00;0.97;500.51;0.00;0.00;0.62;;;;;12.30;1.00;;;;;;2276395;61;1589;-87
2023/11/21 18:33:06;250726.00;0.84;433.20;18310.00;0.06;32.34;;;;;12.30;1.00;;;;;;2276211;61;1915;-87
2023/11/21 18:35:33;110104.00;0.37;191.01;0.00;0.00;0.62;;;;;12.10;1.00;;;;;;2276321;61;1656;-84
2023/11/21 18:38:00;95037.00;0.32;165.00;0.00;0.00;0.62;;;;;11.60;1.80;;;;;;2276265;61;1435;-87
2023/11/21 18:40:28;433198.00;1.44;746.89;0.00;0.00;0.62;;;;;11.70;2.40;;;;;;2276435;61;1073;-88
2023/11/21 18:42:55;209047.00;0.70;361.50;0.00;0.00;0.62;;;;;11.70;1.70;;;;;;2276432;61;1517;-89
2023/11/21 18:45:22;56233.00;0.19;97.96;0.00;0.00;0.62;;;;;11.70;1.90;;;;;;2276230;61;1593;-86
2023/11/21 18:47:51;296270.00;0.99;511.51;0.00;0.00;0.62;;;;;11.70;1.90;;;;;;2276240;61;1042;-89
2023/11/21 18:50:20;151977.00;0.51;263.21;0.00;0.00;0.62;;;;;11.90;1.10;;;;;;2276395;61;1007;-87
2023/11/21 18:52:49;136937.00;0.46;237.29;0.00;0.00;0.62;;;;;11.90;1.00;;;;;;2276240;61;2021;-88
2023/11/21 18:55:16;35962.00;0.12;62.90;0.00;0.00;0.62;;;;;12.00;1.00;;;;;;2276249;61;1292;-86
2023/11/21 18:57:43;196111.00;0.65;339.23;0.00;0.00;0.62;;;;;12.20;1.00;;;;;;2286477;55;3740;-88
2023/11/21 19:00:13;53744.00;0.18;93.66;0.00;0.00;0.62;;;;;12.30;1.70;;;;;;2276331;61;1443;-87
2023/11/21 19:02:42;17348.00;0.06;30.68;0.00;0.00;0.62;;;;;12.40;1.20;;;;;;2276486;61;1113;-87
2023/11/21 19:05:11;195229.00;0.65;337.71;0.00;0.00;0.62;;;;;12.70;1.80;;;;;;2276223;61;1722;-89
2023/11/21 19:10:09;243033.00;0.81;419.97;0.00;0.00;0.62;;;;;13.70;1.00;;;;;;2278309;61;1351;-89
2023/11/21 19:12:38;20750.00;0.07;36.57;0.00;0.00;0.62;;;;;13.80;1.00;;;;;;2276346;61;1116;-86
2023/11/21 19:15:08;58588.00;0.20;102.04;0.00;0.00;0.62;;;;;14.10;1.00;;;;;;2276308;61;1995;-87
2023/11/21 19:17:35;0.00;0.00;0.62;0.00;0.00;0.62;;;;;14.30;1.00;;;;;;2276355;61;1036;-87
2023/11/21 19:20:03;83902.00;0.28;145.78;0.00;0.00;0.62;;;;;14.60;1.00;;;;;;2276366;61;1422;-87
2023/11/21 19:22:33;108340.00;0.36;187.97;42208.00;0.14;73.71;;;;;14.90;1.00;;;;;;2276273;61;1619;-88
2023/11/21 19:25:01;189053.00;0.63;327.08;0.00;0.00;0.62;;;;;14.90;1.00;;;;;;2276148;61;1553;-87
2023/11/21 19:29:57;278611.00;0.93;481.15;0.00;0.00;0.62;;;;;15.00;1.00;;;;;;2278136;61;1434;-88
2023/11/21 19:32:25;124460.00;0.41;215.78;0.00;0.00;0.62;;;;;15.10;1.00;;;;;;2276214;61;1433;-87
2023/11/21 19:34:52;77799.00;0.26;135.24;0.00;0.00;0.62;;;;;15.40;1.00;;;;;;2276164;61;2002;-89
2023/11/21 19:37:19;246418.00;0.82;425.79;12106.00;0.04;21.60;;;;;15.30;1.00;;;;;;2276204;61;1691;-87
2023/11/21 19:39:48;32488.00;0.11;56.89;0.00;0.00;0.62;;;;;15.60;1.00;;;;;;2276160;61;1332;-87
2023/11/21 19:42:15;101565.00;0.34;176.27;0.00;0.00;0.62;;;;;15.60;1.00;;;;;;2276010;61;1425;-88
2023/11/21 19:44:43;176285.00;0.59;305.09;0.00;0.00;0.62;;;;;15.50;1.00;;;;;;2276272;61;1358;-87
2023/11/21 19:47:10;28280.00;0.09;49.61;0.00;0.00;0.62;;;;;15.40;1.00;;;;;;2276234;61;912;-86
2023/11/21 19:49:37;126547.00;0.42;219.37;0.00;0.00;0.62;;;;;15.50;1.00;;;;;;2276293;61;1730;-89
2023/11/21 19:52:06;261740.00;0.87;452.14;0.00;0.00;0.62;;;;;15.40;1.00;;;;;;2276282;61;1116;-88
2023/11/21 19:54:33;149464.00;0.50;258.88;0.00;0.00;0.62;;;;;15.40;1.00;;;;;;2276089;61;2008;-87
2023/11/21 19:57:03;175734.00;0.59;304.14;14321.00;0.05;25.43;;;;;15.40;1.00;;;;;;2276324;61;908;-88
2023/11/21 19:59:31;31660.00;0.11;55.46;0.00;0.00;0.62;;;;;15.40;1.00;;;;;;2276255;61;1032;-88
2023/11/21 20:01:59;178117.00;0.59;308.25;0.00;0.00;0.62;;;;;15.30;1.00;;;;;;2276132;61;962;-88
2023/11/21 20:04:26;215847.00;0.72;373.20;42658.00;0.14;74.49;;;;;15.10;1.00;;;;;;2276074;61;1685;-87
2023/11/21 20:06:54;54388.00;0.18;94.77;0.00;0.00;0.62;;;;;14.70;1.00;;;;;;2276059;61;1684;-86
2023/11/21 20:09:20;108321.00;0.36;187.93;0.00;0.00;0.62;;;;;14.70;1.00;;;;;;2276746;61;1596;-86
2023/11/21 20:11:50;103794.00;0.35;180.12;0.00;0.00;0.62;;;;;14.50;1.00;;;;;;2276815;61;1544;-87
2023/11/21 20:14:18;51530.00;0.17;89.83;0.00;0.00;0.62;;;;;13.70;1.00;;;;;;2276640;60;1915;-86
2023/11/21 20:16:46;104547.00;0.35;181.42;0.00;0.00;0.62;;;;;13.20;1.00;;;;;;2276875;60;997;-86
2023/11/21 20:19:13;79042.00;0.26;137.38;0.00;0.00;0.62;;;;;12.90;1.00;;;;;;2276741;60;941;-85
2023/11/21 20:21:40;722220.00;2.41;1245.79;71910.00;0.24;125.06;;;;;12.90;1.00;;;;;;2276682;60;1096;-85
2023/11/21 20:24:11;1226899.00;4.09;2138.93;130002.00;0.43;225.33;;;;;12.70;1.00;;;;;;2276802;60;1404;-86
2023/11/21 20:26:41;230217.00;0.77;397.92;92449.00;0.31;160.54;;;;;12.80;1.00;;;;;;2276615;60;1565;-86
2023/11/21 20:29:08;164099.00;0.55;284.10;0.00;0.00;0.62;;;;;12.80;1.00;;;;;;2276719;60;1075;-85
2023/11/21 20:31:36;758801.00;2.53;1309.36;20952.00;0.07;36.92;;;;;12.90;1.00;;;;;;2276650;60;1115;-86
2023/11/21 20:34:04;658333.00;2.19;1135.06;0.00;0.00;0.62;;;;;13.10;1.00;;;;;;2276176;60;2001;-85
2023/11/21 20:36:32;127235.00;0.42;220.56;0.00;0.00;0.62;;;;;13.10;1.00;;;;;;2276331;60;1103;-85
2023/11/21 20:38:58;386665.00;1.29;666.88;0.00;0.00;0.62;;;;;12.60;1.00;;;;;;2276390;60;972;-85
2023/11/21 20:41:27;1163185.00;3.88;2023.80;121615.00;0.41;210.87;;;;;12.70;1.00;;;;;;2276360;60;2210;-85
2023/11/21 20:43:55;525203.00;1.75;905.23;128305.00;0.43;222.41;;;;;12.50;1.00;;;;;;2276456;60;1305;-85
2023/11/21 20:46:22;374132.00;1.25;645.34;0.00;0.00;0.62;;;;;12.40;1.00;;;;;;2276152;60;1728;-84
2023/11/21 20:48:50;142051.00;0.47;246.11;0.00;0.00;0.62;;;;;12.30;1.00;;;;;;2276541;60;1045;-84
2023/11/21 20:51:17;324323.00;1.08;559.73;0.00;0.00;0.62;;;;;12.30;1.00;;;;;;2276407;60;2220;-85
2023/11/21 20:53:46;1403189.00;4.68;2462.24;144539.00;0.48;250.40;;;;;12.20;1.00;;;;;;2276485;60;1917;-85
2023/11/21 20:56:13;471493.00;1.57;812.76;85122.00;0.28;147.88;;;;;12.20;1.10;;;;;;2276167;60;1851;-86
2023/11/21 20:58:40;86418.00;0.29;150.12;20144.00;0.07;35.52;;;;;12.60;1.00;;;;;;2276437;61;2264;-87
2023/11/21 21:01:07;272726.00;0.91;471.03;35854.00;0.12;62.71;;;;;12.80;1.00;;;;;;2276494;61;1113;-85
2023/11/21 21:03:34;1473828.00;4.91;2593.97;147306.00;0.49;255.16;;;;;12.90;1.00;;;;;;2276524;61;1141;-85
2023/11/21 21:06:02;466186.00;1.55;803.63;4795.00;0.02;8.93;;;;;12.60;1.00;;;;;;2276296;61;1269;-85
2023/11/21 21:08:29;127838.00;0.43;221.60;0.00;0.00;0.62;;;;;12.50;1.00;;;;;;2276345;61;1078;-85
2023/11/21 21:10:58;109572.00;0.37;190.09;35863.00;0.12;62.73;;;;;12.50;1.00;;;;;;2276469;61;1063;-85
2023/11/21 21:13:24;1935670.00;6.45;3493.06;109335.00;0.36;189.68;;;;;12.00;1.00;;;;;;2276513;61;946;-86
2023/11/21 21:15:51;346215.00;1.15;597.36;91924.00;0.31;159.63;;;;;12.00;1.50;;;;;;2276271;61;1993;-85
2023/11/21 21:18:21;71153.00;0.24;123.75;0.00;0.00;0.62;;;;;11.80;2.20;;;;;;2276280;61;1095;-85
2023/11/21 21:20:49;73016.00;0.24;126.97;0.00;0.00;0.62;;;;;11.80;1.60;;;;;;2276260;61;984;-85
2023/11/21 21:23:17;1362934.00;4.54;2387.75;52239.00;0.17;91.06;;;;;11.50;2.10;;;;;;2276319;61;1131;-85
2023/11/21 21:25:45;923876.00;3.08;1598.09;111037.00;0.37;192.62;;;;;11.40;2.40;;;;;;2276347;61;1329;-86
2023/11/21 21:28:13;151497.00;0.50;262.39;0.00;0.00;0.62;;;;;11.40;2.60;;;;;;2276304;61;1054;-84
2023/11/21 21:30:41;169631.00;0.57;293.63;11358.00;0.04;20.30;;;;;11.40;3.90;;;;;;2276357;61;1105;-85
2023/11/21 21:33:08;241429.00;0.80;417.21;6786.00;0.02;12.38;;;;;11.10;3.90;;;;;;2276268;61;1060;-85
2023/11/21 21:35:35;1121587.00;3.74;1949.07;118092.00;0.39;204.79;;;;;10.80;5.90;;;;;;2276195;61;1994;-85
2023/11/21 21:38:02;1314580.00;4.38;2298.81;93626.00;0.31;162.57;;;;;11.00;6.50;;;;;;2276322;61;1121;-84
2023/11/21 21:40:32;306220.00;1.02;528.61;69668.00;0.23;121.19;;;;;11.30;4.20;;;;;;2276334;61;947;-84
2023/11/21 21:43:00;282626.00;0.94;488.05;44349.00;0.15;77.41;;;;;11.60;2.50;;;;;;2276343;61;975;-85
2023/11/21 21:45:28;403815.00;1.35;696.36;35873.00;0.12;62.75;;;;;11.70;2.20;;;;;;2276206;61;1540;-85
2023/11/21 21:47:55;288264.00;0.96;497.74;0.00;0.00;0.62;;;;;11.90;2.10;;;;;;2276180;61;1147;-86
2023/11/21 21:50:24;1426920.00;4.76;2506.35;166699.00;0.56;288.58;;;;;11.90;2.20;;;;;;2275917;61;1105;-84
2023/11/21 21:52:51;1397691.00;4.66;2452.04;235472.00;0.78;406.96;;;;;12.10;1.70;;;;;;2275977;61;1047;-86
2023/11/21 21:55:18;512382.00;1.71;883.14;107407.00;0.36;186.36;;;;;12.00;1.00;;;;;;2276062;61;1992;-84
2023/11/21 21:57:46;396870.00;1.32;684.42;123244.00;0.41;213.68;;;;;12.30;1.00;;;;;;2276191;61;917;-85
2023/11/21 22:00:14;394580.00;1.32;680.49;54311.00;0.18;94.64;;;;;12.90;1.00;;;;;;2276158;61;1091;-85
2023/11/21 22:02:42;490688.00;1.64;845.79;31929.00;0.11;55.92;;;;;13.30;1.00;;;;;;2276197;61;1043;-85
2023/11/21 22:05:11;386021.00;1.29;665.77;24865.00;0.08;43.69;;;;;13.60;1.00;;;;;;2276297;61;1292;-84
2023/11/21 22:07:38;177919.00;0.59;307.91;0.00;0.00;0.62;;;;;13.60;1.00;;;;;;2276064;61;1141;-86
2023/11/21 22:10:06;1059871.00;3.53;1838.81;80448.00;0.27;139.81;;;;;13.70;1.00;;;;;;2276042;61;1067;-85
2023/11/21 22:12:32;312222.00;1.04;538.93;43230.00;0.14;75.48;;;;;13.40;1.00;;;;;;2276112;61;1699;-84
2023/11/21 22:15:01;372601.00;1.24;642.71;49272.00;0.16;85.93;;;;;13.10;1.00;;;;;;2276030;61;2008;-84
2023/11/21 22:17:28;383940.00;1.28;662.20;0.00;0.00;0.62;;;;;12.60;1.00;;;;;;2276037;61;1099;-84
2023/11/21 22:19:56;1647610.00;5.49;2924.08;123261.00;0.41;213.71;;;;;12.60;1.00;;;;;;2276078;61;942;-85
2023/11/21 22:22:23;759186.00;2.53;1310.03;80259.00;0.27;139.48;;;;;12.30;1.00;;;;;;2276038;61;1082;-86
2023/11/21 22:24:51;1522979.00;5.08;2686.43;167914.00;0.56;290.67;;;;;12.00;1.00;;;;;;2276073;61;1345;-87
2023/11/21 22:27:18;399846.00;1.33;689.54;0.00;0.00;0.62;;;;;12.10;1.00;;;;;;2276139;61;1107;-85
2023/11/21 22:29:45;626726.00;2.09;1080.39;142438.00;0.47;246.77;;;;;12.50;1.00;;;;;;2276165;61;1117;-86
2023/11/21 22:32:13;97217.00;0.32;168.77;0.00;0.00;0.62;;;;;12.50;1.00;;;;;;2275569;61;1109;-84
2023/11/21 22:34:40;1904893.00;6.35;3430.83;70014.00;0.23;121.78;;;;;12.60;1.00;;;;;;2275917;61;1934;-85
2023/11/21 22:37:08;1535829.00;5.12;2710.72;109857.00;0.37;190.58;;;;;12.60;1.00;;;;;;2275744;61;1010;-85
2023/11/21 22:39:35;275121.00;0.92;475.15;82920.00;0.28;144.08;;;;;12.80;1.00;;;;;;2276037;61;1714;-84
2023/11/21 22:42:02;131248.00;0.44;227.48;0.00;0.00;0.62;;;;;13.10;1.00;;;;;;2276190;61;1052;-85
2023/11/21 22:44:29;215011.00;0.72;371.76;31104.00;0.10;54.49;;;;;13.30;1.00;;;;;;2276013;61;1313;-84
2023/11/21 22:46:59;230813.00;0.77;398.95;59545.00;0.20;103.69;;;;;13.10;1.00;;;;;;2276165;61;1079;-85
2023/11/21 22:49:28;313898.00;1.05;541.81;72471.00;0.24;126.03;;;;;13.10;1.00;;;;;;2276134;61;983;-85
2023/11/21 22:51:56;162659.00;0.54;281.62;0.00;0.00;0.62;;;;;12.90;1.00;;;;;;2276165;61;1036;-86
2023/11/21 22:54:23;298259.00;0.99;514.93;12319.00;0.04;21.97;;;;;13.10;1.00;;;;;;2275919;61;1998;-85
2023/11/21 22:56:51;1699645.00;5.67;3024.73;108780.00;0.36;188.72;;;;;13.40;1.00;;;;;;2276099;61;2236;-85
2023/11/21 22:59:18;500767.00;1.67;863.14;0.00;0.00;0.62;;;;;13.10;1.00;;;;;;2275733;61;1619;-85
2023/11/21 23:01:48;86353.00;0.29;150.01;0.00;0.00;0.62;;;;;13.30;1.00;;;;;;2276142;61;1268;-85
2023/11/21 23:04:15;43939.00;0.15;76.70;0.00;0.00;0.62;;;;;13.50;1.00;;;;;;2276048;61;1364;-85
2023/11/21 23:06:45;58921.00;0.20;102.61;0.00;0.00;0.62;;;;;13.70;1.00;;;;;;2276106;61;1114;-85
2023/11/21 23:09:12;385437.00;1.28;664.77;24077.00;0.08;42.33;;;;;13.90;1.00;;;;;;2276048;61;1143;-86
2023/11/21 23:11:39;2108910.00;7.03;3850.40;136442.00;0.45;236.44;;;;;13.90;1.00;;;;;;2276060;61;1738;-84
2023/11/21 23:14:05;747712.00;2.49;1290.08;134659.00;0.45;233.36;;;;;13.80;1.00;;;;;;2276031;61;1285;-85
2023/11/21 23:16:32;37768.00;0.13;66.03;0.00;0.00;0.62;;;;;13.60;1.00;;;;;;2276017;61;2001;-84
2023/11/21 23:18:59;150979.00;0.50;261.49;0.00;0.00;0.62;;;;;13.40;1.00;;;;;;2276034;61;2147;-84
2023/11/21 23:21:28;129880.00;0.43;225.12;16680.00;0.06;29.52;;;;;12.90;1.00;;;;;;2276120;61;1058;-88
2023/11/21 23:23:57;244383.00;0.81;422.29;0.00;0.00;0.62;;;;;12.90;1.00;;;;;;2275970;61;1396;-85
2023/11/21 23:26:24;61910.00;0.21;107.78;0.00;0.00;0.62;;;;;12.90;1.00;;;;;;2276032;61;1027;-84
2023/11/21 23:28:51;115218.00;0.38;199.83;0.00;0.00;0.62;;;;;13.20;1.00;;;;;;2275887;61;1078;-84
2023/11/21 23:31:18;227831.00;0.76;393.82;5838.00;0.02;10.74;;;;;13.30;1.00;;;;;;2275922;61;929;-84
2023/11/21 23:33:44;1568867.00;5.23;2773.39;175350.00;0.58;303.48;;;;;13.40;1.00;;;;;;2276052;61;1097;-85
2023/11/21 23:36:11;1350669.00;4.50;2365.14;50960.00;0.17;88.85;;;;;13.10;1.00;;;;;;2275983;61;1926;-84
2023/11/21 23:38:41;882413.00;2.94;1525.25;131879.00;0.44;228.57;;;;;13.00;1.00;;;;;;2275916;61;2389;-86
2023/11/21 23:41:09;871583.00;2.91;1506.26;136980.00;0.46;237.36;;;;;12.80;1.00;;;;;;2276002;61;1338;-85
2023/11/21 23:43:36;237778.00;0.79;410.93;86676.00;0.29;150.57;;;;;12.80;1.00;;;;;;2275840;61;1129;-85
2023/11/21 23:46:04;148851.00;0.50;257.83;0.00;0.00;0.62;;;;;12.50;1.00;;;;;;2275883;61;1392;-85
2023/11/21 23:48:31;91619.00;0.31;159.10;0.00;0.00;0.62;;;;;12.50;1.00;;;;;;2275978;61;1075;-84
2023/11/21 23:50:58;228133.00;0.76;394.34;37888.00;0.13;66.23;;;;;12.30;1.00;;;;;;2275957;61;1102;-84
2023/11/21 23:53:26;17305.00;0.06;30.60;0.00;0.00;0.62;;;;;12.30;1.00;;;;;;2275981;61;1209;-84
2023/11/21 23:55:53;141917.00;0.47;245.88;0.00;0.00;0.62;;;;;12.40;1.00;;;;;;2275761;61;2004;-85
2023/11/21 23:58:21;75609.00;0.25;131.45;0.00;0.00;0.62;;;;;12.60;1.00;;;;;;2275948;61;1027;-87
